Time;durP1;ratioP1;P1;durP2;ratioP2;P2;SDS_P1;SDS_P2;PMS_P1;PMS_P2;Temp;Humidity;BMP_temperature;BMP_pressure;BME280_temperature;BME280_humidity;BME280_pressure;Samples;Min_cycle;Max_cycle;Signal;HPM_P1;HPM_P2
2022/12/27 00:02:13;;;;;;;13.60;1.77;;;3.20;99.90;;;;;;5007852;28;20123;-80
2022/12/27 00:04:39;;;;;;;15.60;2.20;;;3.00;99.90;;;;;;5008015;28;20041;-79
2022/12/27 00:07:05;;;;;;;16.15;2.90;;;2.70;99.90;;;;;;5007493;28;20049;-80
2022/12/27 00:09:31;;;;;;;13.32;1.98;;;3.30;99.90;;;;;;5007924;28;20481;-79
2022/12/27 00:11:57;;;;;;;12.23;1.88;;;2.80;99.90;;;;;;5007865;28;20041;-79
2022/12/27 00:14:23;;;;;;;9.43;1.52;;;3.00;99.90;;;;;;5008599;28;20497;-79
2022/12/27 00:16:48;;;;;;;13.57;1.92;;;3.70;99.90;;;;;;5023646;28;20041;-79
2022/12/27 00:19:14;;;;;;;13.10;2.00;;;3.00;99.90;;;;;;5023911;28;20191;-79
2022/12/27 00:21:40;;;;;;;10.20;2.03;;;3.10;99.90;;;;;;5006807;28;20221;-80
2022/12/27 00:24:07;;;;;;;14.60;2.22;;;3.90;99.90;;;;;;5006604;28;20077;-80
2022/12/27 00:26:33;;;;;;;15.10;2.45;;;3.00;99.90;;;;;;5007657;28;20117;-80
2022/12/27 00:29:00;;;;;;;12.60;2.15;;;3.00;99.90;;;;;;5006643;28;20076;-80
2022/12/27 00:31:28;;;;;;;11.30;1.98;;;3.10;99.90;;;;;;5007250;28;20065;-80
2022/12/27 00:33:55;;;;;;;10.73;1.75;;;3.30;99.90;;;;;;5006728;28;20046;-79
2022/12/27 00:36:26;;;;;;;11.30;1.90;;;3.10;99.90;;;;;;5006523;28;20065;-79
2022/12/27 00:38:53;;;;;;;12.70;1.88;;;3.00;99.90;;;;;;5006924;28;20484;-79
2022/12/27 00:41:19;;;;;;;12.68;2.83;;;3.10;99.90;;;;;;5006248;28;20169;-79
2022/12/27 00:43:45;;;;;;;10.82;2.03;;;3.00;99.90;;;;;;5005523;28;20046;-79
2022/12/27 00:46:11;;;;;;;10.77;1.98;;;3.00;99.90;;;;;;5006951;28;20486;-79
2022/12/27 00:48:37;;;;;;;17.63;2.30;;;3.60;99.90;;;;;;5006200;28;20054;-79
2022/12/27 00:51:06;;;;;;;15.30;2.20;;;2.90;99.90;;;;;;5006962;28;20423;-79
2022/12/27 00:53:33;;;;;;;9.23;1.58;;;3.00;99.90;;;;;;5008292;28;20049;-80
2022/12/27 00:55:59;;;;;;;12.88;2.17;;;3.30;99.90;;;;;;5005705;28;20127;-80
2022/12/27 00:58:26;;;;;;;17.40;2.45;;;3.20;99.90;;;;;;5007336;28;20042;-80
2022/12/27 01:00:52;;;;;;;9.25;1.83;;;3.80;99.90;;;;;;5006372;28;20050;-79
2022/12/27 01:03:18;;;;;;;9.95;1.77;;;3.00;99.90;;;;;;5005765;28;20077;-79
2022/12/27 01:05:44;;;;;;;10.73;2.20;;;3.00;99.90;;;;;;5006302;28;20053;-80
2022/12/27 01:08:12;;;;;;;12.48;1.95;;;3.00;99.90;;;;;;5008057;28;20054;-79
2022/12/27 01:10:39;;;;;;;16.25;2.05;;;3.50;99.90;;;;;;5022979;28;20216;-80
2022/12/27 01:13:05;;;;;;;12.50;2.42;;;3.80;99.90;;;;;;5007149;28;20048;-80
2022/12/27 01:15:31;;;;;;;15.93;3.13;;;3.70;99.90;;;;;;5006478;28;20046;-80
2022/12/27 01:17:57;;;;;;;10.32;2.47;;;4.10;99.90;;;;;;5007087;28;20074;-79
2022/12/27 01:20:22;;;;;;;13.80;2.53;;;4.40;99.90;;;;;;5007686;28;20042;-80
2022/12/27 01:22:48;;;;;;;11.68;1.92;;;3.80;99.90;;;;;;5022821;28;20132;-80
2022/12/27 01:25:14;;;;;;;17.70;2.20;;;4.40;99.90;;;;;;5007755;28;20393;-80
2022/12/27 01:27:39;;;;;;;17.35;2.38;;;3.40;99.90;;;;;;5022003;28;20042;-80
2022/12/27 01:30:06;;;;;;;9.77;1.95;;;3.60;99.90;;;;;;5022554;28;20044;-80
2022/12/27 01:32:33;;;;;;;18.52;2.60;;;3.50;99.90;;;;;;5021687;28;20116;-80
2022/12/27 01:34:59;;;;;;;15.65;2.72;;;3.50;99.90;;;;;;5007623;28;20050;-79
2022/12/27 01:37:27;;;;;;;15.23;2.45;;;3.90;99.90;;;;;;5006549;28;20545;-79
2022/12/27 01:39:52;;;;;;;14.55;2.33;;;4.00;99.90;;;;;;5014599;28;20046;-79
2022/12/27 01:45:15;;;;;;;12.85;1.95;;;4.70;99.90;;;;;;5026065;28;20045;-80
2022/12/27 01:47:46;;;;;;;19.02;2.45;;;3.80;99.90;;;;;;5009777;28;20547;-79
2022/12/27 01:50:25;;;;;;;10.95;2.20;;;3.60;99.90;;;;;;5029941;28;20144;-79
2022/12/27 01:52:55;;;;;;;13.68;2.25;;;3.80;99.90;;;;;;5012237;28;20156;-79
2022/12/27 01:55:26;;;;;;;19.08;2.53;;;4.40;99.90;;;;;;5032274;28;20413;-79
2022/12/27 01:57:55;;;;;;;17.65;2.45;;;4.00;99.90;;;;;;5012638;28;20045;-79
2022/12/27 02:00:21;;;;;;;10.93;1.67;;;4.80;99.90;;;;;;5013266;28;20053;-79
2022/12/27 02:02:48;;;;;;;11.90;1.60;;;4.00;99.90;;;;;;5012701;28;20143;-79
2022/12/27 02:05:17;;;;;;;11.93;1.95;;;4.00;99.90;;;;;;5031954;28;20041;-79
2022/12/27 02:07:58;;;;;;;17.63;2.22;;;4.70;99.90;;;;;;5012349;28;20130;-79
2022/12/27 02:10:24;;;;;;;13.02;2.03;;;4.10;99.90;;;;;;5031175;28;20038;-80
2022/12/27 02:12:50;;;;;;;15.30;2.03;;;4.00;99.90;;;;;;5028338;28;20045;-80
2022/12/27 02:15:16;;;;;;;13.63;2.17;;;4.30;99.90;;;;;;5013652;28;20048;-80
2022/12/27 02:17:41;;;;;;;13.57;2.10;;;4.00;99.90;;;;;;5013624;28;20042;-80
2022/12/27 02:20:15;;;;;;;13.80;2.13;;;4.20;99.90;;;;;;5013078;28;20060;-80
2022/12/27 02:26:12;;;;;;;12.10;1.90;;;4.10;99.90;;;;;;5031081;28;20081;-80
2022/12/27 02:29:04;;;;;;;13.48;2.25;;;4.20;99.90;;;;;;5011624;28;20132;-80
2022/12/27 02:31:37;;;;;;;14.48;1.88;;;4.20;99.90;;;;;;5013262;28;20049;-79
2022/12/27 02:34:09;;;;;;;16.42;1.63;;;4.20;99.90;;;;;;5011376;28;20049;-79
2022/12/27 02:36:37;;;;;;;13.13;2.30;;;4.40;99.90;;;;;;5012749;28;20409;-79
2022/12/27 02:39:05;;;;;;;9.73;1.42;;;4.70;99.90;;;;;;5012000;28;20148;-79
2022/12/27 02:53:07;;;;;;;16.92;2.25;;;4.40;99.90;;;;;;5012937;28;20061;-79
2022/12/27 02:58:41;;;;;;;12.82;1.80;;;4.00;99.90;;;;;;5011625;28;20045;-80
2022/12/27 03:04:19;;;;;;;15.85;2.03;;;4.00;99.90;;;;;;5012084;28;20061;-79
2022/12/27 03:06:57;;;;;;;12.65;1.85;;;4.00;99.90;;;;;;5011804;28;20049;-79
2022/12/27 03:15:55;;;;;;;13.38;2.28;;;3.90;99.90;;;;;;5012905;28;20437;-79
2022/12/27 03:18:36;;;;;;;17.27;1.75;;;4.20;99.90;;;;;;4995038;28;20414;-79
2022/12/27 03:26:38;;;;;;;13.18;2.33;;;4.50;99.90;;;;;;5012296;28;20058;-79
2022/12/27 03:34:51;;;;;;;19.02;2.05;;;4.70;99.90;;;;;;5011899;28;20136;-80
2022/12/27 03:40:26;;;;;;;18.35;2.40;;;4.90;99.90;;;;;;5011584;28;20119;-81
2022/12/27 03:43:10;;;;;;;14.48;2.10;;;3.90;99.90;;;;;;5010498;28;20053;-80
2022/12/27 03:48:30;;;;;;;18.20;2.17;;;4.60;99.90;;;;;;5029588;28;20046;-80
2022/12/27 03:51:03;;;;;;;14.20;2.10;;;4.00;99.90;;;;;;5011178;28;20060;-80
2022/12/27 03:53:37;;;;;;;14.43;2.30;;;5.00;99.90;;;;;;5010445;28;20477;-80
2022/12/27 03:56:06;;;;;;;12.63;2.17;;;4.10;99.90;;;;;;5029183;28;20049;-80
2022/12/27 03:58:32;;;;;;;12.73;1.70;;;4.10;99.90;;;;;;5009657;28;20061;-80
2022/12/27 04:00:58;;;;;;;18.85;2.55;;;5.10;99.90;;;;;;5011503;28;20049;-81
2022/12/27 04:03:24;;;;;;;15.65;2.40;;;4.00;99.90;;;;;;5010794;28;20466;-80
2022/12/27 04:05:49;;;;;;;10.18;2.10;;;3.80;99.90;;;;;;5010109;28;20050;-80
2022/12/27 04:35:38;;;;;;;14.32;1.73;;;3.70;99.90;;;;;;5010358;28;20056;-80
2022/12/27 04:38:04;;;;;;;19.45;2.35;;;3.80;99.90;;;;;;5009589;28;20045;-80
2022/12/27 04:57:01;;;;;;;12.63;1.50;;;4.30;99.90;;;;;;5008595;28;20227;-80
2022/12/27 05:02:11;;;;;;;14.43;2.20;;;4.10;99.90;;;;;;5010116;28;20512;-80
2022/12/27 05:04:38;;;;;;;14.32;1.73;;;4.60;99.90;;;;;;5010394;28;20056;-80
2022/12/27 05:15:21;;;;;;;12.02;2.10;;;3.60;99.90;;;;;;5010565;28;20049;-81
2022/12/27 05:17:47;;;;;;;10.15;1.90;;;4.00;99.90;;;;;;5008785;28;20114;-80
2022/12/27 05:20:12;;;;;;;13.63;2.22;;;3.60;99.90;;;;;;5010530;28;20049;-80
2022/12/27 05:25:34;;;;;;;18.27;2.60;;;3.80;99.90;;;;;;5009153;28;20362;-80
2022/12/27 05:28:01;;;;;;;20.60;2.67;;;3.40;99.90;;;;;;5026230;28;20387;-80
2022/12/27 05:30:26;;;;;;;22.88;2.75;;;4.30;99.90;;;;;;5009459;28;20041;-80
2022/12/27 05:32:54;;;;;;;22.58;2.78;;;3.80;99.90;;;;;;5027451;28;20366;-80
2022/12/27 05:35:20;;;;;;;19.30;3.00;;;3.80;99.90;;;;;;5009647;28;20054;-80
2022/12/27 05:37:46;;;;;;;13.98;1.83;;;3.30;99.90;;;;;;5026551;28;20044;-80
2022/12/27 05:40:12;;;;;;;13.82;2.42;;;3.70;99.90;;;;;;5009328;28;20505;-80
2022/12/27 05:42:37;;;;;;;18.05;2.78;;;3.10;99.90;;;;;;5027205;28;20056;-80
2022/12/27 05:45:03;;;;;;;18.90;2.90;;;3.90;99.90;;;;;;5008396;28;20183;-80
2022/12/27 05:47:29;;;;;;;11.73;2.38;;;3.00;99.90;;;;;;5009707;28;20052;-80
2022/12/27 05:49:55;;;;;;;15.30;2.50;;;3.10;99.90;;;;;;5028634;28;20045;-80
2022/12/27 05:52:20;;;;;;;17.92;2.65;;;3.50;99.90;;;;;;5028248;28;20053;-80
2022/12/27 05:54:46;;;;;;;12.23;2.28;;;3.70;99.90;;;;;;5026341;28;20037;-80
2022/12/27 05:57:12;;;;;;;20.65;3.13;;;3.60;99.90;;;;;;5035979;28;20128;-79
2022/12/27 05:59:37;;;;;;;13.40;2.35;;;3.50;99.90;;;;;;5024696;28;20136;-80
2022/12/27 06:02:03;;;;;;;16.90;2.35;;;3.20;99.90;;;;;;5026970;28;20053;-80
2022/12/27 06:04:29;;;;;;;18.70;3.13;;;2.90;99.90;;;;;;5025385;28;20107;-80
2022/12/27 06:06:54;;;;;;;16.23;2.53;;;2.90;99.90;;;;;;5009318;28;20051;-79
2022/12/27 06:09:20;;;;;;;19.63;3.10;;;2.90;99.90;;;;;;5025586;28;20048;-80
2022/12/27 06:11:45;;;;;;;16.58;2.80;;;3.40;99.90;;;;;;5025860;28;20379;-80
2022/12/27 06:14:11;;;;;;;17.08;2.25;;;3.80;99.90;;;;;;5025252;28;20057;-80
2022/12/27 06:16:37;;;;;;;13.77;2.40;;;3.80;99.90;;;;;;5025769;28;20099;-80
2022/12/27 06:19:02;;;;;;;17.67;2.33;;;2.70;99.90;;;;;;5024407;28;20041;-80
2022/12/27 06:21:28;;;;;;;13.43;2.10;;;2.60;99.90;;;;;;5026017;28;20041;-80
2022/12/27 06:23:54;;;;;;;15.35;2.35;;;2.50;99.90;;;;;;5026373;28;20050;-80
2022/12/27 06:26:23;;;;;;;14.00;2.60;;;3.20;99.90;;;;;;5025143;28;20063;-80
2022/12/27 06:28:50;;;;;;;8.27;1.60;;;2.50;99.90;;;;;;5013367;28;20050;-80
2022/12/27 06:31:17;;;;;;;14.50;2.50;;;2.70;99.90;;;;;;5027232;28;20052;-80
2022/12/27 06:33:43;;;;;;;23.50;2.50;;;2.40;99.90;;;;;;5007798;28;20508;-80
2022/12/27 06:36:11;;;;;;;15.80;2.35;;;3.10;99.90;;;;;;5011721;28;20071;-81
2022/12/27 06:38:37;;;;;;;21.55;2.42;;;2.80;99.90;;;;;;5031842;28;20114;-80
2022/12/27 06:41:05;;;;;;;16.77;2.63;;;3.00;99.90;;;;;;5048959;28;20048;-80
2022/12/27 06:43:31;;;;;;;17.05;2.22;;;2.40;99.90;;;;;;5031969;28;20110;-80
2022/12/27 06:45:59;;;;;;;12.02;2.17;;;2.40;99.90;;;;;;5049644;28;20041;-80
2022/12/27 06:48:25;;;;;;;21.17;2.67;;;2.50;99.90;;;;;;5031589;28;20061;-80
2022/12/27 06:50:50;;;;;;;13.25;2.22;;;2.60;99.90;;;;;;5049656;28;20040;-80
2022/12/27 06:53:16;;;;;;;13.75;2.45;;;3.30;99.90;;;;;;5032291;28;20087;-80
2022/12/27 06:55:42;;;;;;;14.43;2.13;;;2.90;99.90;;;;;;5049965;28;20123;-80
2022/12/27 06:58:07;;;;;;;11.27;2.17;;;3.40;99.90;;;;;;5048915;28;20041;-80
2022/12/27 07:00:33;;;;;;;15.10;2.63;;;2.90;99.90;;;;;;5032430;28;20110;-80
2022/12/27 07:02:59;;;;;;;16.52;2.83;;;2.90;99.90;;;;;;5048794;28;20077;-79
2022/12/27 07:05:24;;;;;;;16.65;2.78;;;3.20;99.90;;;;;;5032011;28;20088;-79
2022/12/27 07:07:52;;;;;;;17.33;2.70;;;2.70;99.90;;;;;;5049386;28;20103;-79
2022/12/27 07:10:18;;;;;;;10.02;2.35;;;2.40;99.90;;;;;;5031104;28;20350;-79
2022/12/27 07:12:44;;;;;;;15.55;2.33;;;3.00;99.90;;;;;;5030753;28;20052;-80
2022/12/27 07:15:09;;;;;;;16.63;2.45;;;3.50;99.90;;;;;;5030941;28;20049;-80
2022/12/27 07:17:35;;;;;;;12.45;3.30;;;2.90;99.90;;;;;;5050081;28;20116;-80
2022/12/27 07:20:04;;;;;;;17.17;2.03;;;2.80;99.90;;;;;;5049501;28;20045;-80
2022/12/27 07:22:30;;;;;;;19.75;2.78;;;2.40;99.90;;;;;;5030735;28;20045;-80
2022/12/27 07:24:56;;;;;;;20.50;3.28;;;2.90;99.90;;;;;;5031443;28;20111;-80
2022/12/27 07:27:21;;;;;;;13.75;2.22;;;2.20;99.90;;;;;;5047059;28;20045;-80
2022/12/27 07:29:47;;;;;;;16.80;2.08;;;2.20;99.90;;;;;;5010868;28;20251;-79
2022/12/27 07:32:13;;;;;;;11.35;2.45;;;2.20;99.90;;;;;;5012246;28;20050;-80
2022/12/27 07:34:38;;;;;;;20.65;2.85;;;2.80;99.90;;;;;;5011719;28;20045;-80
2022/12/27 07:37:05;;;;;;;14.25;2.42;;;2.70;99.90;;;;;;5028164;28;20535;-81
2022/12/27 07:39:30;;;;;;;18.50;2.50;;;2.90;99.90;;;;;;5028909;28;20413;-80
2022/12/27 07:41:56;;;;;;;11.77;1.90;;;2.30;99.90;;;;;;5010277;28;20057;-81
2022/12/27 07:44:22;;;;;;;15.07;2.38;;;2.80;99.90;;;;;;5011196;28;20397;-80
2022/12/27 07:46:47;;;;;;;12.75;2.00;;;2.20;99.90;;;;;;5009473;28;20378;-80
2022/12/27 07:49:13;;;;;;;21.05;2.55;;;2.40;99.90;;;;;;5011770;28;20041;-80
2022/12/27 07:51:39;;;;;;;14.20;2.20;;;2.40;99.90;;;;;;5010227;28;20405;-81
2022/12/27 07:54:04;;;;;;;11.80;2.50;;;2.70;99.90;;;;;;5034023;28;20037;-80
2022/12/27 07:56:30;;;;;;;13.07;2.03;;;2.40;99.90;;;;;;5032581;28;20139;-80
2022/12/27 07:58:58;;;;;;;21.20;2.65;;;3.50;99.90;;;;;;5028744;28;20056;-80
2022/12/27 08:01:26;;;;;;;20.05;2.58;;;3.30;99.90;;;;;;5048636;28;20040;-80
2022/12/27 08:03:52;;;;;;;17.17;2.28;;;3.10;99.90;;;;;;5047171;28;20045;-80
2022/12/27 08:06:22;;;;;;;11.60;2.10;;;2.50;99.90;;;;;;5047587;28;20477;-81
2022/12/27 08:08:50;;;;;;;13.38;2.33;;;2.80;99.90;;;;;;5042888;28;20550;-81
2022/12/27 08:11:15;;;;;;;20.08;2.75;;;2.60;99.90;;;;;;5047005;28;20045;-81
2022/12/27 08:13:41;;;;;;;18.75;2.95;;;2.60;99.90;;;;;;5046417;28;20044;-80
2022/12/27 08:16:09;;;;;;;14.95;2.63;;;2.70;99.90;;;;;;5046567;28;20049;-80
2022/12/27 08:18:35;;;;;;;21.23;2.42;;;2.60;99.90;;;;;;5048218;28;20362;-80
2022/12/27 08:21:00;;;;;;;19.50;3.03;;;2.70;99.90;;;;;;5013555;28;20041;-81
2022/12/27 08:23:26;;;;;;;16.83;3.15;;;2.70;99.90;;;;;;5030929;28;20405;-80
2022/12/27 08:25:51;;;;;;;20.92;2.92;;;3.30;99.90;;;;;;5029099;28;20063;-81
2022/12/27 08:28:18;;;;;;;17.17;2.80;;;2.60;99.90;;;;;;5013380;28;20071;-81
2022/12/27 08:30:45;;;;;;;15.75;2.80;;;3.60;99.90;;;;;;5029767;28;20037;-81
2022/12/27 08:33:10;;;;;;;22.52;3.05;;;2.60;99.90;;;;;;5038855;28;20571;-80
2022/12/27 08:35:39;;;;;;;17.13;3.28;;;3.00;99.90;;;;;;5046673;28;20156;-80
2022/12/27 08:38:05;;;;;;;20.00;3.63;;;2.70;99.90;;;;;;5043318;28;20044;-79
2022/12/27 08:40:31;;;;;;;18.13;3.55;;;2.60;99.90;;;;;;5028316;28;20056;-79
2022/12/27 08:42:58;;;;;;;21.80;3.45;;;2.70;99.90;;;;;;5011699;28;20072;-80
2022/12/27 08:45:23;;;;;;;15.43;2.95;;;2.60;99.90;;;;;;5029973;28;20041;-80
2022/12/27 08:47:49;;;;;;;21.60;3.10;;;3.10;99.90;;;;;;5028693;28;20117;-79
2022/12/27 08:50:15;;;;;;;20.15;2.45;;;3.40;99.90;;;;;;5029805;28;20037;-81
2022/12/27 08:52:40;;;;;;;18.15;2.70;;;3.60;99.90;;;;;;5047896;28;20045;-81
2022/12/27 08:55:07;;;;;;;18.63;2.88;;;3.20;99.90;;;;;;5028708;28;20044;-81
2022/12/27 08:57:32;;;;;;;18.63;4.60;;;2.70;99.90;;;;;;5028749;28;20049;-81
2022/12/27 08:59:58;;;;;;;24.02;3.20;;;3.10;99.90;;;;;;5026988;28;20056;-81
2022/12/27 09:02:24;;;;;;;22.27;3.33;;;2.80;99.90;;;;;;5009207;28;20107;-81
2022/12/27 09:04:49;;;;;;;17.83;2.47;;;3.30;99.90;;;;;;5009566;28;20449;-81
2022/12/27 09:07:15;;;;;;;15.90;2.50;;;3.00;99.90;;;;;;5027384;28;20189;-80
2022/12/27 09:09:41;;;;;;;13.63;2.78;;;3.60;99.90;;;;;;5009235;28;20052;-81
2022/12/27 09:12:07;;;;;;;29.08;4.07;;;3.00;99.90;;;;;;5008849;28;20084;-82
2022/12/27 09:14:32;;;;;;;35.22;5.15;;;3.10;99.90;;;;;;5009669;28;20046;-81
2022/12/27 09:16:58;;;;;;;25.73;2.97;;;3.00;99.90;;;;;;5008597;28;20049;-81
2022/12/27 09:19:24;;;;;;;20.15;3.25;;;3.10;99.90;;;;;;5009751;28;20127;-81
2022/12/27 09:21:49;;;;;;;20.40;3.95;;;3.50;99.90;;;;;;5026347;28;20081;-80
2022/12/27 09:24:15;;;;;;;16.98;3.35;;;3.30;99.90;;;;;;5027874;28;20056;-80
2022/12/27 09:26:41;;;;;;;23.40;4.22;;;3.60;99.90;;;;;;5009325;28;20500;-80
2022/12/27 09:29:06;;;;;;;22.27;3.50;;;3.30;99.90;;;;;;5008192;28;20045;-81
2022/12/27 09:31:32;;;;;;;16.85;3.13;;;4.40;99.90;;;;;;5009866;28;20038;-81
2022/12/27 09:33:58;;;;;;;20.95;3.50;;;3.60;99.90;;;;;;5026715;28;20164;-81
2022/12/27 09:36:27;;;;;;;15.32;2.92;;;4.60;99.90;;;;;;5008920;28;20544;-80
2022/12/27 09:38:54;;;;;;;12.65;2.58;;;4.00;99.90;;;;;;5008450;28;20382;-81
2022/12/27 09:41:23;;;;;;;17.95;3.00;;;3.50;99.90;;;;;;5009815;28;20056;-81
2022/12/27 09:44:00;;;;;;;15.23;2.90;;;3.80;99.90;;;;;;4991045;28;20191;-81
2022/12/27 09:46:46;;;;;;;12.70;2.40;;;3.50;99.90;;;;;;5009260;28;20604;-81
2022/12/27 09:49:15;;;;;;;19.23;3.17;;;3.60;99.90;;;;;;5009734;28;20085;-81
2022/12/27 09:51:47;;;;;;;14.63;2.15;;;3.70;99.90;;;;;;5026859;28;20080;-81
2022/12/27 09:54:21;;;;;;;16.73;3.03;;;3.70;99.90;;;;;;5009289;28;20501;-81
2022/12/27 09:56:49;;;;;;;16.25;3.22;;;3.80;99.90;;;;;;5007525;28;20286;-81
2022/12/27 09:59:25;;;;;;;19.42;3.28;;;4.00;99.90;;;;;;5008756;28;20053;-81
2022/12/27 10:01:51;;;;;;;18.33;2.45;;;3.80;99.90;;;;;;5008263;28;20466;-81
2022/12/27 10:04:18;;;;;;;16.23;2.85;;;3.90;99.90;;;;;;5027112;28;20129;-81
2022/12/27 10:06:48;;;;;;;16.02;3.25;;;4.40;99.90;;;;;;5008358;28;20057;-81
2022/12/27 10:09:38;;;;;;;11.90;3.42;;;4.00;99.90;;;;;;5009768;28;20400;-81
2022/12/27 10:12:31;;;;;;;24.95;4.50;;;4.00;99.90;;;;;;5011448;28;20123;-81
2022/12/27 10:15:06;;;;;;;19.67;3.00;;;4.00;99.90;;;;;;5030438;28;20373;-81
2022/12/27 10:17:54;;;;;;;19.40;2.88;;;4.60;99.90;;;;;;5012818;28;20340;-80
2022/12/27 10:20:52;;;;;;;18.80;3.30;;;4.20;99.90;;;;;;5016745;28;20036;-81
2022/12/27 10:23:24;;;;;;;18.13;3.28;;;4.20;99.90;;;;;;5016290;28;20386;-81
2022/12/27 10:25:57;;;;;;;23.40;3.80;;;4.60;99.90;;;;;;5030684;28;20048;-80
2022/12/27 10:28:28;;;;;;;18.23;3.42;;;4.40;99.90;;;;;;5030826;28;20045;-80
2022/12/27 10:30:54;;;;;;;14.40;2.90;;;4.60;99.90;;;;;;5047260;28;20099;-80
2022/12/27 10:33:25;;;;;;;16.45;2.83;;;4.60;99.90;;;;;;5030850;28;20116;-80
2022/12/27 10:35:51;;;;;;;19.58;3.03;;;4.80;99.90;;;;;;5031590;28;20052;-80
2022/12/27 10:38:18;;;;;;;16.10;2.88;;;4.70;99.90;;;;;;5031472;28;20045;-81
2022/12/27 10:41:13;;;;;;;21.27;2.75;;;4.90;99.90;;;;;;5030562;28;20094;-81
2022/12/27 10:43:41;;;;;;;18.00;3.15;;;5.40;99.90;;;;;;5047133;28;20111;-80
2022/12/27 10:46:14;;;;;;;14.20;2.63;;;5.10;99.90;;;;;;5031599;28;20053;-80
2022/12/27 10:48:40;;;;;;;13.75;2.20;;;5.10;99.90;;;;;;5032014;28;20492;-81
2022/12/27 10:51:09;;;;;;;19.83;2.63;;;5.20;99.90;;;;;;5031897;28;20103;-81
2022/12/27 10:53:39;;;;;;;14.77;2.47;;;5.50;99.90;;;;;;5030991;28;20115;-82
2022/12/27 10:56:10;;;;;;;13.68;2.03;;;5.40;99.90;;;;;;5049808;28;20041;-80
2022/12/27 10:58:39;;;;;;;14.50;2.80;;;5.50;99.90;;;;;;5022069;28;20034;-82
2022/12/27 11:01:13;;;;;;;17.55;2.75;;;5.40;99.90;;;;;;5028758;28;20430;-80
2022/12/27 11:03:38;;;;;;;15.65;2.97;;;5.40;99.90;;;;;;5027161;28;20431;-82
2022/12/27 11:06:15;;;;;;;20.67;3.40;;;5.50;99.90;;;;;;5048148;28;20045;-83
2022/12/27 11:08:41;;;;;;;16.77;2.50;;;5.50;99.90;;;;;;5031547;28;20382;-81
2022/12/27 11:11:12;;;;;;;17.00;2.50;;;6.20;99.90;;;;;;5031581;28;20036;-81
2022/12/27 11:13:39;;;;;;;16.95;2.47;;;5.70;99.90;;;;;;5049494;28;20044;-81
2022/12/27 11:16:05;;;;;;;17.42;2.50;;;6.20;99.90;;;;;;5013349;28;20059;-81
2022/12/27 11:18:35;;;;;;;15.02;2.58;;;5.90;99.90;;;;;;5049520;28;20064;-81
2022/12/27 11:21:02;;;;;;;20.73;2.58;;;5.90;99.90;;;;;;5030627;28;20055;-81
2022/12/27 11:23:34;;;;;;;17.73;3.03;;;6.00;99.90;;;;;;5029797;28;20045;-81
2022/12/27 11:26:03;;;;;;;15.95;2.47;;;6.00;99.90;;;;;;5030460;28;20061;-81
2022/12/27 11:28:37;;;;;;;16.75;2.67;;;6.50;99.90;;;;;;5013545;28;20077;-81
2022/12/27 11:31:07;;;;;;;12.75;2.40;;;6.40;99.90;;;;;;5030941;28;20056;-81
2022/12/27 11:33:38;;;;;;;11.43;2.63;;;6.00;99.90;;;;;;5031427;28;20500;-81
2022/12/27 11:36:07;;;;;;;14.32;2.10;;;6.00;99.90;;;;;;5030863;28;20056;-81
2022/12/27 11:38:36;;;;;;;14.02;2.22;;;5.90;99.90;;;;;;5049059;28;20044;-81
2022/12/27 11:41:08;;;;;;;15.63;2.67;;;5.90;99.90;;;;;;5011070;28;20057;-83
2022/12/27 11:43:41;;;;;;;9.95;2.38;;;5.80;99.90;;;;;;5027739;28;20501;-82
2022/12/27 11:46:22;;;;;;;19.55;2.53;;;5.70;99.90;;;;;;5028095;28;20056;-82
2022/12/27 11:48:53;;;;;;;21.77;2.53;;;6.40;99.90;;;;;;5011048;28;20046;-86
2022/12/27 11:51:23;;;;;;;13.55;2.58;;;5.70;99.90;;;;;;5011152;28;20079;-81
2022/12/27 11:54:01;;;;;;;17.00;2.60;;;5.90;99.90;;;;;;5028047;28;20065;-82
2022/12/27 11:56:35;;;;;;;15.07;2.40;;;6.00;99.90;;;;;;5028129;28;20038;-81
2022/12/27 11:59:27;;;;;;;20.95;3.13;;;6.10;99.90;;;;;;5005392;28;20045;-82
2022/12/27 12:02:12;;;;;;;13.02;2.45;;;6.10;99.90;;;;;;4991337;28;20525;-81
2022/12/27 12:04:56;;;;;;;18.88;2.85;;;6.10;99.90;;;;;;4991505;28;20141;-81
2022/12/27 12:08:00;;;;;;;12.90;2.70;;;6.00;99.90;;;;;;4991534;28;20108;-81
2022/12/27 12:10:48;;;;;;;;;;;6.10;99.90;;;;;;4992522;28;20085;-81
2022/12/27 12:13:17;;;;;;;17.88;2.97;;;6.10;99.90;;;;;;4990948;28;19956;-81
2022/12/27 12:15:59;;;;;;;11.15;2.28;;;6.10;99.90;;;;;;4991784;28;20045;-81
2022/12/27 12:18:40;;;;;;;12.77;2.58;;;6.50;99.90;;;;;;5008662;28;20041;-80
2022/12/27 12:21:17;;;;;;;9.13;2.40;;;6.10;99.90;;;;;;4991180;28;20045;-81
2022/12/27 12:24:13;;;;;;;17.42;3.13;;;6.10;99.90;;;;;;5008872;28;20088;-81
2022/12/27 12:26:52;;;;;;;11.02;2.42;;;6.00;99.90;;;;;;5007237;28;20486;-80
2022/12/27 12:29:28;;;;;;;21.00;3.17;;;6.50;99.90;;;;;;4992042;28;20050;-81
2022/12/27 12:32:19;;;;;;;14.00;2.28;;;6.10;99.90;;;;;;4990060;28;20045;-82
2022/12/27 12:35:14;;;;;;;17.17;2.58;;;6.10;99.90;;;;;;4990687;28;20421;-81
2022/12/27 12:37:50;;;;;;;15.85;2.42;;;6.10;99.90;;;;;;4990811;28;20207;-81
2022/12/27 12:40:31;;;;;;;12.15;2.55;;;6.00;99.90;;;;;;4997152;28;20050;-81
2022/12/27 12:43:12;;;;;;;15.43;3.45;;;6.10;99.90;;;;;;5005232;28;20141;-81
2022/12/27 12:45:57;;;;;;;19.83;3.05;;;6.10;99.90;;;;;;5006908;28;20049;-82
2022/12/27 12:48:26;;;;;;;13.23;2.35;;;6.10;99.90;;;;;;5023245;28;20515;-81
2022/12/27 12:51:02;;;;;;;14.27;2.50;;;6.10;99.90;;;;;;5023304;28;20049;-82
2022/12/27 12:53:45;;;;;;;12.57;2.78;;;6.10;99.90;;;;;;5022880;28;20451;-82
2022/12/27 12:56:30;;;;;;;14.20;2.05;;;6.10;99.90;;;;;;5007345;28;20144;-81
2022/12/27 12:59:15;;;;;;;17.50;2.08;;;6.10;99.90;;;;;;5022047;28;20474;-81
2022/12/27 13:01:59;;;;;;;15.00;2.42;;;6.10;99.90;;;;;;5022716;28;20494;-81
2022/12/27 13:04:32;;;;;;;13.50;2.47;;;6.00;99.90;;;;;;5006942;28;20054;-81
2022/12/27 13:07:09;;;;;;;14.30;3.90;;;6.00;99.90;;;;;;5021763;28;20160;-81
2022/12/27 13:09:55;;;;;;;17.10;2.90;;;6.30;99.90;;;;;;5022916;28;20124;-82
2022/12/27 13:12:41;;;;;;;18.20;3.53;;;5.90;99.90;;;;;;5022691;28;20132;-82
2022/12/27 13:15:30;;;;;;;12.15;2.97;;;5.90;99.90;;;;;;5007201;28;20042;-82
2022/12/27 13:18:17;;;;;;;15.82;3.65;;;5.90;99.90;;;;;;5007759;28;20050;-81
2022/12/27 13:20:59;;;;;;;19.15;2.90;;;5.80;99.90;;;;;;5006555;28;20050;-81
2022/12/27 13:23:33;;;;;;;15.38;2.83;;;5.80;99.90;;;;;;5006651;28;20530;-82
2022/12/27 13:26:22;;;;;;;13.05;2.60;;;5.80;99.90;;;;;;5022658;28;20197;-81
2022/12/27 13:29:05;;;;;;;14.30;2.67;;;5.80;99.90;;;;;;5004642;28;20081;-82
2022/12/27 13:31:45;;;;;;;10.52;2.20;;;5.80;99.90;;;;;;5006545;28;20045;-81
2022/12/27 13:34:26;;;;;;;18.00;2.70;;;5.70;99.90;;;;;;5022970;28;20046;-81
2022/12/27 13:37:08;;;;;;;14.30;2.85;;;5.60;99.90;;;;;;5021493;28;20103;-81
2022/12/27 13:39:41;;;;;;;17.10;2.88;;;5.60;99.90;;;;;;5022766;28;20058;-81
2022/12/27 13:42:27;;;;;;;12.77;2.42;;;5.60;99.90;;;;;;5021184;28;20141;-81
2022/12/27 13:45:09;;;;;;;7.53;2.08;;;5.50;99.90;;;;;;5024693;28;20184;-82
2022/12/27 13:47:51;;;;;;;14.10;2.70;;;5.40;99.90;;;;;;5029366;28;20053;-81
2022/12/27 13:50:28;;;;;;;12.52;2.35;;;5.40;99.90;;;;;;5028819;28;20054;-82
2022/12/27 13:52:53;;;;;;;16.27;2.55;;;5.30;99.90;;;;;;5028483;28;20054;-81
2022/12/27 13:55:31;;;;;;;13.70;3.15;;;5.30;99.90;;;;;;5029672;28;20057;-82
2022/12/27 13:58:25;;;;;;;17.52;2.75;;;5.20;99.90;;;;;;5026923;28;20081;-82
2022/12/27 14:01:01;;;;;;;14.80;2.10;;;5.20;99.90;;;;;;4994370;28;20132;-81
2022/12/27 14:03:42;;;;;;;18.92;2.47;;;5.10;99.90;;;;;;5011986;28;20080;-82
2022/12/27 14:06:33;;;;;;;17.55;2.97;;;5.10;99.90;;;;;;5012219;28;20061;-82
2022/12/27 14:09:24;;;;;;;18.33;3.25;;;5.10;99.90;;;;;;5027570;28;20084;-81
2022/12/27 14:12:30;;;;;;;18.50;3.30;;;5.00;99.90;;;;;;5010291;28;20056;-81
2022/12/27 14:15:00;;;;;;;15.60;2.95;;;5.00;99.90;;;;;;5010071;28;20075;-82
2022/12/27 14:17:35;;;;;;;12.85;3.72;;;5.10;99.90;;;;;;5026107;28;20058;-82
2022/12/27 14:20:15;;;;;;;21.45;3.72;;;5.10;99.90;;;;;;5026729;28;20661;-82
2022/12/27 14:23:17;;;;;;;26.00;4.57;;;5.20;99.90;;;;;;5010250;28;20129;-82
2022/12/27 14:26:13;;;;;;;14.75;3.92;;;5.20;99.90;;;;;;5025209;28;20057;-81
2022/12/27 14:29:31;;;;;;;18.38;3.80;;;5.30;99.90;;;;;;5010665;28;20064;-82
2022/12/27 14:32:25;;;;;;;24.00;4.32;;;5.30;99.90;;;;;;5007961;28;20046;-82
2022/12/27 14:35:13;;;;;;;22.00;4.53;;;5.30;99.90;;;;;;5025662;28;20116;-82
2022/12/27 14:37:56;;;;;;;20.63;5.13;;;5.40;99.90;;;;;;5009522;28;20048;-82
2022/12/27 14:40:32;;;;;;;16.95;4.68;;;5.40;99.90;;;;;;5008851;28;20144;-82
2022/12/27 14:43:16;;;;;;;16.08;4.57;;;5.40;99.90;;;;;;5024657;28;20065;-82
2022/12/27 14:45:55;;;;;;;15.43;4.35;;;5.40;99.90;;;;;;5008310;28;20061;-82
2022/12/27 14:48:43;;;;;;;18.23;4.30;;;5.40;99.90;;;;;;5009848;28;20056;-81
2022/12/27 14:51:54;;;;;;;23.63;4.57;;;5.40;99.90;;;;;;5026433;28;20177;-81
2022/12/27 14:54:43;;;;;;;16.38;3.88;;;5.30;99.90;;;;;;5009048;28;20057;-82
2022/12/27 14:57:26;;;;;;;19.88;4.88;;;5.30;99.90;;;;;;5009977;28;20449;-82